Time,TemperatureF,DewpointF,PressureIn,WindDirection,WindDirectionDegrees,WindSpeedMPH,WindSpeedGustMPH,Humidity,HourlyPrecipIn,Conditions,Clouds,dailyrainin,SolarRadiationWatts/m^2,SoftwareType,DateUTC
2013-10-19 00:07:00,55.9,42.0,30.01,West,281,1.0,2.0,59,0.00,,,0.00,0,weatherlink.com 1.10,2013-10-19 07:07:00,
2013-10-19 00:22:00,55.5,41.0,30.01,West,281,0.0,2.0,59,0.00,,,0.00,0,weatherlink.com 1.10,2013-10-19 07:22:00,
2013-10-19 00:37:00,56.6,40.0,30.01,West,281,0.0,1.0,55,0.00,,,0.00,0,weatherlink.com 1.10,2013-10-19 07:37:00,
2013-10-19 00:52:00,57.8,41.0,30.01,West,281,2.0,2.0,53,0.00,,,0.00,0,weatherlink.com 1.10,2013-10-19 07:52:00,
2013-10-19 01:07:00,57.5,40.0,30.00,West,281,2.0,2.0,52,0.00,,,0.00,0,weatherlink.com 1.10,2013-10-19 08:07:00,
2013-10-19 01:22:00,57.7,38.0,30.01,West,281,0.0,1.0,49,0.00,,,0.00,0,weatherlink.com 1.10,2013-10-19 08:22:00,
2013-10-19 01:37:00,57.5,40.0,30.01,West,281,1.0,2.0,52,0.00,,,0.00,0,weatherlink.com 1.10,2013-10-19 08:37:00,
2013-10-19 01:52:00,57.8,39.0,30.01,West,281,1.0,1.0,49,0.00,,,0.00,0,weatherlink.com 1.10,2013-10-19 08:52:00,
2013-10-19 02:07:00,57.6,39.0,30.01,West,281,0.0,1.0,51,0.00,,,0.00,0,weatherlink.com 1.10,2013-10-19 09:07:00,
2013-10-19 02:22:00,57.2,39.0,30.01,West,281,1.0,2.0,52,0.00,,,0.00,0,weatherlink.com 1.10,2013-10-19 09:22:00,
2013-10-19 02:37:00,56.2,40.0,30.01,West,281,1.0,2.0,55,0.00,,,0.00,0,weatherlink.com 1.10,2013-10-19 09:37:00,
2013-10-19 02:52:00,55.9,40.0,30.01,West,281,1.0,2.0,55,0.00,,,0.00,0,weatherlink.com 1.10,2013-10-19 09:52:00,
2013-10-19 03:07:00,57.0,40.0,30.01,West,281,0.0,2.0,53,0.00,,,0.00,0,weatherlink.com 1.10,2013-10-19 10:07:00,
2013-10-19 03:22:00,56.7,40.0,30.01,West,281,1.0,2.0,53,0.00,,,0.00,0,weatherlink.com 1.10,2013-10-19 10:22:00,
2013-10-19 03:37:00,56.4,39.0,30.01,West,281,0.0,2.0,53,0.00,,,0.00,0,weatherlink.com 1.10,2013-10-19 10:37:00,
2013-10-19 03:52:00,55.2,40.0,30.01,West,281,1.0,2.0,56,0.00,,,0.00,0,weatherlink.com 1.10,2013-10-19 10:52:00,
2013-10-19 04:07:00,54.1,39.0,30.01,West,281,1.0,2.0,58,0.00,,,0.00,0,weatherlink.com 1.10,2013-10-19 11:07:00,
2013-10-19 04:22:00,53.9,40.0,30.01,West,281,0.0,1.0,59,0.00,,,0.00,0,weatherlink.com 1.10,2013-10-19 11:22:00,
2013-10-19 04:37:00,54.5,40.0,30.01,West,281,0.0,1.0,58,0.00,,,0.00,0,weatherlink.com 1.10,2013-10-19 11:37:00,
2013-10-19 04:52:00,55.0,40.0,30.01,West,281,0.0,1.0,57,0.00,,,0.00,0,weatherlink.com 1.10,2013-10-19 11:52:00,
2013-10-19 05:07:00,55.3,39.0,30.02,West,281,0.0,0.0,55,0.00,,,0.00,0,weatherlink.com 1.10,2013-10-19 12:07:00,
2013-10-19 05:22:00,55.5,39.0,30.02,West,281,0.0,0.0,54,0.00,,,0.00,0,weatherlink.com 1.10,2013-10-19 12:22:00,
2013-10-19 05:37:00,55.5,38.0,30.02,West,281,0.0,0.0,53,0.00,,,0.00,0,weatherlink.com 1.10,2013-10-19 12:37:00,
2013-10-19 05:52:00,55.6,38.0,30.02,West,281,0.0,1.0,53,0.00,,,0.00,0,weatherlink.com 1.10,2013-10-19 12:52:00,
2013-10-19 06:07:00,55.9,39.0,30.03,West,281,0.0,1.0,53,0.00,,,0.00,0,weatherlink.com 1.10,2013-10-19 13:07:00,
2013-10-19 06:22:00,55.3,39.0,30.03,West,281,0.0,2.0,55,0.00,,,0.00,0,weatherlink.com 1.10,2013-10-19 13:22:00,
2013-10-19 06:37:00,55.3,39.0,30.03,West,281,0.0,2.0,55,0.00,,,0.00,0,weatherlink.com 1.10,2013-10-19 13:37:00,
2013-10-19 06:52:00,55.9,39.0,30.03,West,281,0.0,1.0,53,0.00,,,0.00,0,weatherlink.com 1.10,2013-10-19 13:52:00,
2013-10-19 07:07:00,56.4,39.0,30.03,West,281,0.0,1.0,52,0.00,,,0.00,0,weatherlink.com 1.10,2013-10-19 14:07:00,
2013-10-19 07:22:00,56.9,39.0,30.03,West,281,0.0,1.0,52,0.00,,,0.00,0,weatherlink.com 1.10,2013-10-19 14:22:00,
2013-10-19 07:37:00,57.0,39.0,30.04,West,281,0.0,1.0,52,0.00,,,0.00,12,weatherlink.com 1.10,2013-10-19 14:37:00,
2013-10-19 07:52:00,56.7,40.0,30.04,West,281,0.0,1.0,54,0.00,,,0.00,25,weatherlink.com 1.10,2013-10-19 14:52:00,
2013-10-19 08:07:00,56.9,40.0,30.04,West,281,0.0,1.0,54,0.00,,,0.00,33,weatherlink.com 1.10,2013-10-19 15:07:00,
2013-10-19 08:22:00,57.3,41.0,30.04,West,281,0.0,1.0,54,0.00,,,0.00,40,weatherlink.com 1.10,2013-10-19 15:22:00,
2013-10-19 08:37:00,58.3,41.0,30.05,West,281,0.0,1.0,54,0.00,,,0.00,46,weatherlink.com 1.10,2013-10-19 15:37:00,
2013-10-19 08:52:00,59.0,42.0,30.05,West,281,0.0,0.0,54,0.00,,,0.00,49,weatherlink.com 1.10,2013-10-19 15:52:00,
2013-10-19 09:07:00,60.2,43.0,30.05,West,281,0.0,0.0,54,0.00,,,0.00,54,weatherlink.com 1.10,2013-10-19 16:07:00,
2013-10-19 09:22:00,61.5,43.0,30.06,WSW,244,0.0,1.0,50,0.00,,,0.00,58,weatherlink.com 1.10,2013-10-19 16:22:00,
2013-10-19 09:38:00,62.9,42.0,30.06,ESE,122,0.0,1.0,47,0.00,,,0.00,396,weatherlink.com 1.10,2013-10-19 16:38:00,
2013-10-19 09:53:00,65.3,43.0,30.06,SE,126,0.0,1.0,45,0.00,,,0.00,443,weatherlink.com 1.10,2013-10-19 16:53:00,
2013-10-19 10:08:00,68.3,43.0,30.06,SE,140,0.0,3.0,40,0.00,,,0.00,483,weatherlink.com 1.10,2013-10-19 17:08:00,
2013-10-19 10:23:00,69.1,43.0,30.06,ESE,123,0.0,4.0,39,0.00,,,0.00,520,weatherlink.com 1.10,2013-10-19 17:23:00,
2013-10-19 10:38:00,69.9,42.0,30.06,ESE,113,0.0,5.0,36,0.00,,,0.00,555,weatherlink.com 1.10,2013-10-19 17:38:00,
2013-10-19 10:53:00,71.9,42.0,30.06,ESE,105,2.0,3.0,34,0.00,,,0.00,584,weatherlink.com 1.10,2013-10-19 17:53:00,
2013-10-19 11:08:00,72.7,42.0,30.05,SSE,165,1.0,5.0,33,0.00,,,0.00,606,weatherlink.com 1.10,2013-10-19 18:08:00,
2013-10-19 11:23:00,73.2,42.0,30.05,SE,144,0.0,3.0,32,0.00,,,0.00,371,weatherlink.com 1.10,2013-10-19 18:23:00,
2013-10-19 11:38:00,73.9,41.0,30.05,SE,146,2.0,4.0,31,0.00,,,0.00,652,weatherlink.com 1.10,2013-10-19 18:38:00,
2013-10-19 11:53:00,74.6,40.0,30.05,SSE,148,1.0,4.0,29,0.00,,,0.00,663,weatherlink.com 1.10,2013-10-19 18:53:00,
2013-10-19 12:08:00,76.1,42.0,30.05,SE,144,4.0,4.0,29,0.00,,,0.00,673,weatherlink.com 1.10,2013-10-19 19:08:00,
2013-10-19 12:23:00,76.3,41.0,30.04,SE,125,0.0,3.0,28,0.00,,,0.00,258,weatherlink.com 1.10,2013-10-19 19:23:00,
2013-10-19 12:38:00,77.3,42.0,30.04,East,100,0.0,3.0,28,0.00,,,0.00,97,weatherlink.com 1.10,2013-10-19 19:38:00,
2013-10-19 12:53:00,77.8,42.0,30.03,ESE,119,0.0,3.0,28,0.00,,,0.00,149,weatherlink.com 1.10,2013-10-19 19:53:00,
2013-10-19 13:08:00,78.0,42.0,30.03,East,98,0.0,2.0,28,0.00,,,0.00,79,weatherlink.com 1.10,2013-10-19 20:08:00,
2013-10-19 13:23:00,78.0,41.0,30.02,ESE,115,0.0,2.0,27,0.00,,,0.00,47,weatherlink.com 1.10,2013-10-19 20:23:00,
2013-10-19 13:38:00,78.3,42.0,30.01,SE,124,0.0,2.0,27,0.00,,,0.00,40,weatherlink.com 1.10,2013-10-19 20:38:00,
2013-10-19 13:53:00,78.4,42.0,30.01,SE,132,0.0,2.0,27,0.00,,,0.00,39,weatherlink.com 1.10,2013-10-19 20:53:00,
2013-10-19 14:08:00,78.6,42.0,30.00,SSE,153,0.0,2.0,27,0.00,,,0.00,35,weatherlink.com 1.10,2013-10-19 21:08:00,
2013-10-19 14:23:00,78.8,42.0,30.00,ESE,114,0.0,2.0,27,0.00,,,0.00,33,weatherlink.com 1.10,2013-10-19 21:23:00,
2013-10-19 14:38:00,78.6,42.0,30.00,SSE,157,0.0,2.0,27,0.00,,,0.00,37,weatherlink.com 1.10,2013-10-19 21:38:00,
2013-10-19 14:53:00,79.0,42.0,29.99,SE,135,0.0,2.0,27,0.00,,,0.00,30,weatherlink.com 1.10,2013-10-19 21:53:00,
2013-10-19 15:08:00,79.0,42.0,29.99,South,182,0.0,2.0,27,0.00,,,0.00,33,weatherlink.com 1.10,2013-10-19 22:08:00,
2013-10-19 15:24:00,79.1,42.0,29.99,South,169,0.0,1.0,27,0.00,,,0.00,28,weatherlink.com 1.10,2013-10-19 22:24:00,
2013-10-19 15:39:00,79.2,41.0,29.99,SSE,154,2.0,2.0,26,0.00,,,0.00,30,weatherlink.com 1.10,2013-10-19 22:39:00,
2013-10-19 15:54:00,79.1,42.0,29.99,SSE,168,1.0,2.0,27,0.00,,,0.00,25,weatherlink.com 1.10,2013-10-19 22:54:00,
2013-10-19 16:24:00,78.0,42.0,29.98,SSE,149,0.0,2.0,28,0.00,,,0.00,26,weatherlink.com 1.10,2013-10-19 23:24:00,
2013-10-19 16:39:00,77.5,42.0,29.98,SSE,154,0.0,1.0,28,0.00,,,0.00,21,weatherlink.com 1.10,2013-10-19 23:39:00,
2013-10-19 16:54:00,76.3,42.0,29.98,SSE,154,0.0,0.0,29,0.00,,,0.00,19,weatherlink.com 1.10,2013-10-19 23:54:00,
2013-10-19 17:09:00,75.9,42.0,29.98,SSE,154,0.0,0.0,30,0.00,,,0.00,18,weatherlink.com 1.10,2013-10-20 00:09:00,
2013-10-19 17:24:00,75.6,42.0,29.98,SSE,154,0.0,0.0,30,0.00,,,0.00,14,weatherlink.com 1.10,2013-10-20 00:24:00,
2013-10-19 17:39:00,75.2,42.0,29.98,SSE,154,0.0,0.0,31,0.00,,,0.00,12,weatherlink.com 1.10,2013-10-20 00:39:00,
2013-10-19 17:54:00,75.1,42.0,29.98,SSE,154,0.0,0.0,31,0.00,,,0.00,9,weatherlink.com 1.10,2013-10-20 00:54:00,
2013-10-19 18:09:00,74.9,41.0,29.98,SSE,154,0.0,0.0,30,0.00,,,0.00,5,weatherlink.com 1.10,2013-10-20 01:09:00,
2013-10-19 18:24:00,74.5,42.0,29.98,SSE,154,0.0,1.0,31,0.00,,,0.00,0,weatherlink.com 1.10,2013-10-20 01:24:00,
2013-10-19 18:39:00,73.6,42.0,29.98,SSE,154,0.0,1.0,32,0.00,,,0.00,0,weatherlink.com 1.10,2013-10-20 01:39:00,
2013-10-19 18:54:00,72.3,42.0,29.98,SSE,154,0.0,1.0,33,0.00,,,0.00,0,weatherlink.com 1.10,2013-10-20 01:54:00,
2013-10-19 19:09:00,71.0,42.0,29.99,SSE,155,1.0,2.0,35,0.00,,,0.00,0,weatherlink.com 1.10,2013-10-20 02:09:00,
2013-10-19 19:24:00,69.0,42.0,29.99,SSE,163,1.0,2.0,38,0.00,,,0.00,0,weatherlink.com 1.10,2013-10-20 02:24:00,
2013-10-19 19:39:00,68.5,42.0,29.99,SSE,163,1.0,2.0,39,0.00,,,0.00,0,weatherlink.com 1.10,2013-10-20 02:39:00,
2013-10-19 19:54:00,67.8,43.0,29.99,SSE,163,0.0,2.0,40,0.00,,,0.00,0,weatherlink.com 1.10,2013-10-20 02:54:00,
2013-10-19 20:09:00,66.0,42.0,29.99,South,186,1.0,2.0,42,0.00,,,0.00,0,weatherlink.com 1.10,2013-10-20 03:09:00,
2013-10-19 20:24:00,64.9,41.0,29.99,SSW,199,1.0,3.0,42,0.00,,,0.00,0,weatherlink.com 1.10,2013-10-20 03:24:00,
2013-10-19 20:39:00,65.0,41.0,30.00,WSW,252,1.0,3.0,42,0.00,,,0.00,0,weatherlink.com 1.10,2013-10-20 03:39:00,
2013-10-19 20:54:00,65.8,41.0,30.00,West,259,2.0,3.0,41,0.00,,,0.00,0,weatherlink.com 1.10,2013-10-20 03:54:00,
2013-10-19 21:09:00,66.7,42.0,30.00,WSW,249,2.0,3.0,41,0.00,,,0.00,0,weatherlink.com 1.10,2013-10-20 04:09:00,
2013-10-19 21:24:00,66.7,43.0,30.01,WSW,257,1.0,3.0,42,0.00,,,0.00,0,weatherlink.com 1.10,2013-10-20 04:24:00,
2013-10-19 21:39:00,66.2,43.0,30.01,WSW,258,3.0,3.0,43,0.00,,,0.00,0,weatherlink.com 1.10,2013-10-20 04:39:00,
2013-10-19 21:54:00,66.2,43.0,30.01,West,259,2.0,4.0,43,0.00,,,0.00,0,weatherlink.com 1.10,2013-10-20 04:54:00,
2013-10-19 22:09:00,66.2,43.0,30.01,West,261,2.0,3.0,43,0.00,,,0.00,0,weatherlink.com 1.10,2013-10-20 05:09:00,
2013-10-19 22:24:00,66.4,42.0,30.01,West,263,2.0,3.0,41,0.00,,,0.00,0,weatherlink.com 1.10,2013-10-20 05:24:00,
2013-10-19 22:39:00,66.1,41.0,30.01,West,265,2.0,3.0,40,0.00,,,0.00,0,weatherlink.com 1.10,2013-10-20 05:39:00,
2013-10-19 22:54:00,65.1,42.0,30.01,West,265,0.0,3.0,43,0.00,,,0.00,0,weatherlink.com 1.10,2013-10-20 05:54:00,
2013-10-19 23:09:00,61.9,42.0,30.01,West,266,1.0,2.0,48,0.00,,,0.00,0,weatherlink.com 1.10,2013-10-20 06:09:00,
2013-10-19 23:24:00,59.5,42.0,30.01,West,266,1.0,2.0,52,0.00,,,0.00,0,weatherlink.com 1.10,2013-10-20 06:24:00,
2013-10-19 23:39:00,58.8,41.0,30.01,West,266,1.0,2.0,53,0.00,,,0.00,0,weatherlink.com 1.10,2013-10-20 06:39:00,
2013-10-19 23:54:00,57.5,41.0,30.00,West,266,1.0,3.0,55,0.00,,,0.00,0,weatherlink.com 1.10,2013-10-20 06:54:00,